sensor_id;sensor_type;location;lat;lon;timestamp;P1;durP1;ratioP1;P2;durP2;ratioP2
5125;SDS011;63008;53.112;8.896;2023-07-02T00:01:17;5.60;;;2.90;;
5125;SDS011;63008;53.112;8.896;2023-07-02T00:03:18;5.10;;;2.50;;
5125;SDS011;63008;53.112;8.896;2023-07-02T00:05:22;7.60;;;2.63;;
5125;SDS011;63008;53.112;8.896;2023-07-02T00:07:23;4.40;;;2.70;;
5125;SDS011;63008;53.112;8.896;2023-07-02T00:09:26;2.90;;;2.70;;
5125;SDS011;63008;53.112;8.896;2023-07-02T00:11:27;5.80;;;2.50;;
5125;SDS011;63008;53.112;8.896;2023-07-02T00:13:28;8.00;;;2.83;;
5125;SDS011;63008;53.112;8.896;2023-07-02T00:15:29;3.63;;;2.30;;
5125;SDS011;63008;53.112;8.896;2023-07-02T00:17:30;3.80;;;2.07;;
5125;SDS011;63008;53.112;8.896;2023-07-02T00:19:31;2.83;;;2.27;;
5125;SDS011;63008;53.112;8.896;2023-07-02T00:21:32;6.77;;;3.40;;
5125;SDS011;63008;53.112;8.896;2023-07-02T00:23:33;4.00;;;2.80;;
5125;SDS011;63008;53.112;8.896;2023-07-02T00:25:34;4.50;;;2.73;;
5125;SDS011;63008;53.112;8.896;2023-07-02T00:27:35;3.03;;;2.70;;
5125;SDS011;63008;53.112;8.896;2023-07-02T00:29:37;12.70;;;2.50;;
5125;SDS011;63008;53.112;8.896;2023-07-02T00:31:38;4.37;;;2.43;;
5125;SDS011;63008;53.112;8.896;2023-07-02T00:33:39;4.20;;;2.40;;
5125;SDS011;63008;53.112;8.896;2023-07-02T00:35:40;5.50;;;2.43;;
5125;SDS011;63008;53.112;8.896;2023-07-02T00:37:41;10.17;;;3.40;;
5125;SDS011;63008;53.112;8.896;2023-07-02T00:39:42;3.33;;;2.27;;
5125;SDS011;63008;53.112;8.896;2023-07-02T00:41:44;4.80;;;2.70;;
5125;SDS011;63008;53.112;8.896;2023-07-02T00:43:46;5.90;;;2.17;;
5125;SDS011;63008;53.112;8.896;2023-07-02T00:45:47;5.03;;;2.50;;
5125;SDS011;63008;53.112;8.896;2023-07-02T00:47:48;11.40;;;2.90;;
5125;SDS011;63008;53.112;8.896;2023-07-02T00:49:50;7.17;;;4.27;;
5125;SDS011;63008;53.112;8.896;2023-07-02T00:51:51;6.60;;;2.87;;
5125;SDS011;63008;53.112;8.896;2023-07-02T00:53:53;4.63;;;2.77;;
5125;SDS011;63008;53.112;8.896;2023-07-02T00:55:55;6.27;;;3.00;;
5125;SDS011;63008;53.112;8.896;2023-07-02T00:57:56;4.70;;;2.87;;
5125;SDS011;63008;53.112;8.896;2023-07-02T00:59:57;4.50;;;2.93;;
5125;SDS011;63008;53.112;8.896;2023-07-02T01:02:01;8.20;;;2.80;;
5125;SDS011;63008;53.112;8.896;2023-07-02T01:04:03;6.10;;;2.83;;
5125;SDS011;63008;53.112;8.896;2023-07-02T01:06:05;4.67;;;2.60;;
5125;SDS011;63008;53.112;8.896;2023-07-02T01:08:06;6.80;;;2.43;;
5125;SDS011;63008;53.112;8.896;2023-07-02T01:10:08;5.07;;;2.97;;
5125;SDS011;63008;53.112;8.896;2023-07-02T01:12:09;5.60;;;2.63;;
5125;SDS011;63008;53.112;8.896;2023-07-02T01:14:12;7.90;;;3.03;;
5125;SDS011;63008;53.112;8.896;2023-07-02T01:16:17;4.60;;;2.90;;
5125;SDS011;63008;53.112;8.896;2023-07-02T01:18:18;3.50;;;2.67;;
5125;SDS011;63008;53.112;8.896;2023-07-02T01:20:20;8.03;;;3.30;;
5125;SDS011;63008;53.112;8.896;2023-07-02T01:22:22;4.23;;;2.70;;
5125;SDS011;63008;53.112;8.896;2023-07-02T01:24:25;5.30;;;2.83;;
5125;SDS011;63008;53.112;8.896;2023-07-02T01:26:32;5.20;;;3.07;;
5125;SDS011;63008;53.112;8.896;2023-07-02T01:28:34;10.03;;;2.97;;
5125;SDS011;63008;53.112;8.896;2023-07-02T01:30:37;5.53;;;3.23;;
5125;SDS011;63008;53.112;8.896;2023-07-02T01:32:38;8.77;;;2.87;;
5125;SDS011;63008;53.112;8.896;2023-07-02T01:34:39;3.10;;;2.90;;
5125;SDS011;63008;53.112;8.896;2023-07-02T01:36:40;4.30;;;2.47;;
5125;SDS011;63008;53.112;8.896;2023-07-02T01:38:42;6.37;;;2.90;;
5125;SDS011;63008;53.112;8.896;2023-07-02T01:40:43;10.23;;;3.47;;
5125;SDS011;63008;53.112;8.896;2023-07-02T01:42:44;7.93;;;3.10;;
5125;SDS011;63008;53.112;8.896;2023-07-02T01:44:45;5.00;;;3.20;;
5125;SDS011;63008;53.112;8.896;2023-07-02T01:46:49;10.20;;;3.77;;
5125;SDS011;63008;53.112;8.896;2023-07-02T01:48:50;5.57;;;3.10;;
5125;SDS011;63008;53.112;8.896;2023-07-02T01:50:51;9.50;;;2.83;;
5125;SDS011;63008;53.112;8.896;2023-07-02T01:52:52;8.53;;;2.77;;
5125;SDS011;63008;53.112;8.896;2023-07-02T01:54:53;5.20;;;2.87;;
5125;SDS011;63008;53.112;8.896;2023-07-02T01:56:54;5.13;;;3.33;;
5125;SDS011;63008;53.112;8.896;2023-07-02T01:58:56;5.43;;;3.30;;
5125;SDS011;63008;53.112;8.896;2023-07-02T02:00:57;6.50;;;3.20;;
5125;SDS011;63008;53.112;8.896;2023-07-02T02:02:58;4.57;;;3.27;;
5125;SDS011;63008;53.112;8.896;2023-07-02T02:04:59;4.93;;;3.63;;
5125;SDS011;63008;53.112;8.896;2023-07-02T02:07:00;6.73;;;3.50;;
5125;SDS011;63008;53.112;8.896;2023-07-02T02:09:01;6.87;;;3.80;;
5125;SDS011;63008;53.112;8.896;2023-07-02T02:11:03;6.57;;;3.63;;
5125;SDS011;63008;53.112;8.896;2023-07-02T02:13:04;9.63;;;3.10;;
5125;SDS011;63008;53.112;8.896;2023-07-02T02:15:06;9.37;;;4.17;;
5125;SDS011;63008;53.112;8.896;2023-07-02T02:17:07;7.13;;;3.90;;
5125;SDS011;63008;53.112;8.896;2023-07-02T02:19:08;7.37;;;3.60;;
5125;SDS011;63008;53.112;8.896;2023-07-02T02:21:09;5.23;;;3.97;;
5125;SDS011;63008;53.112;8.896;2023-07-02T02:23:10;7.87;;;3.70;;
5125;SDS011;63008;53.112;8.896;2023-07-02T02:25:11;11.60;;;4.30;;
5125;SDS011;63008;53.112;8.896;2023-07-02T02:27:12;14.53;;;3.80;;
5125;SDS011;63008;53.112;8.896;2023-07-02T02:29:13;11.63;;;4.37;;
5125;SDS011;63008;53.112;8.896;2023-07-02T02:31:14;8.70;;;4.50;;
5125;SDS011;63008;53.112;8.896;2023-07-02T02:33:15;5.30;;;3.80;;
5125;SDS011;63008;53.112;8.896;2023-07-02T02:35:16;8.27;;;4.07;;
5125;SDS011;63008;53.112;8.896;2023-07-02T02:37:18;10.40;;;4.00;;
5125;SDS011;63008;53.112;8.896;2023-07-02T02:39:19;7.13;;;4.70;;
5125;SDS011;63008;53.112;8.896;2023-07-02T02:41:20;10.73;;;4.20;;
5125;SDS011;63008;53.112;8.896;2023-07-02T02:43:21;9.67;;;5.10;;
5125;SDS011;63008;53.112;8.896;2023-07-02T02:45:23;12.83;;;4.50;;
5125;SDS011;63008;53.112;8.896;2023-07-02T02:47:24;7.90;;;4.30;;
5125;SDS011;63008;53.112;8.896;2023-07-02T02:49:27;10.97;;;4.63;;
5125;SDS011;63008;53.112;8.896;2023-07-02T02:51:28;11.43;;;4.30;;
5125;SDS011;63008;53.112;8.896;2023-07-02T02:53:29;12.37;;;4.40;;
5125;SDS011;63008;53.112;8.896;2023-07-02T02:55:30;9.83;;;4.80;;
5125;SDS011;63008;53.112;8.896;2023-07-02T02:57:31;13.77;;;5.03;;
5125;SDS011;63008;53.112;8.896;2023-07-02T02:59:32;12.87;;;4.70;;
5125;SDS011;63008;53.112;8.896;2023-07-02T03:01:33;15.70;;;4.73;;
5125;SDS011;63008;53.112;8.896;2023-07-02T03:03:34;11.63;;;4.50;;
5125;SDS011;63008;53.112;8.896;2023-07-02T03:05:39;7.73;;;4.70;;
5125;SDS011;63008;53.112;8.896;2023-07-02T03:07:40;9.70;;;4.80;;
5125;SDS011;63008;53.112;8.896;2023-07-02T03:09:41;8.10;;;4.60;;
5125;SDS011;63008;53.112;8.896;2023-07-02T03:11:42;15.50;;;4.40;;
5125;SDS011;63008;53.112;8.896;2023-07-02T03:13:43;9.40;;;4.50;;
5125;SDS011;63008;53.112;8.896;2023-07-02T03:15:44;14.97;;;5.60;;
5125;SDS011;63008;53.112;8.896;2023-07-02T03:17:45;13.27;;;5.57;;
5125;SDS011;63008;53.112;8.896;2023-07-02T03:19:46;12.20;;;4.80;;
5125;SDS011;63008;53.112;8.896;2023-07-02T03:21:47;7.97;;;4.93;;
5125;SDS011;63008;53.112;8.896;2023-07-02T03:23:48;11.73;;;5.20;;
5125;SDS011;63008;53.112;8.896;2023-07-02T03:25:49;14.43;;;5.40;;
5125;SDS011;63008;53.112;8.896;2023-07-02T03:27:50;13.63;;;5.13;;
5125;SDS011;63008;53.112;8.896;2023-07-02T03:29:51;14.73;;;5.67;;
5125;SDS011;63008;53.112;8.896;2023-07-02T03:31:53;18.00;;;5.60;;
5125;SDS011;63008;53.112;8.896;2023-07-02T03:33:54;18.20;;;5.57;;
5125;SDS011;63008;53.112;8.896;2023-07-02T03:35:55;15.87;;;5.53;;
5125;SDS011;63008;53.112;8.896;2023-07-02T03:37:56;10.87;;;5.10;;
5125;SDS011;63008;53.112;8.896;2023-07-02T03:39:58;14.57;;;5.40;;
5125;SDS011;63008;53.112;8.896;2023-07-02T03:41:59;15.90;;;5.97;;
5125;SDS011;63008;53.112;8.896;2023-07-02T03:44:00;17.63;;;5.97;;
5125;SDS011;63008;53.112;8.896;2023-07-02T03:46:01;9.53;;;5.20;;
5125;SDS011;63008;53.112;8.896;2023-07-02T03:48:02;14.60;;;5.90;;
5125;SDS011;63008;53.112;8.896;2023-07-02T03:50:03;16.00;;;6.30;;
5125;SDS011;63008;53.112;8.896;2023-07-02T03:52:04;13.63;;;5.60;;
5125;SDS011;63008;53.112;8.896;2023-07-02T03:54:06;15.17;;;7.13;;
5125;SDS011;63008;53.112;8.896;2023-07-02T03:56:07;14.40;;;5.50;;
5125;SDS011;63008;53.112;8.896;2023-07-02T03:58:08;9.80;;;5.13;;
5125;SDS011;63008;53.112;8.896;2023-07-02T04:00:09;27.10;;;6.83;;
5125;SDS011;63008;53.112;8.896;2023-07-02T04:02:11;11.67;;;5.50;;
5125;SDS011;63008;53.112;8.896;2023-07-02T04:04:12;18.47;;;5.70;;
5125;SDS011;63008;53.112;8.896;2023-07-02T04:06:13;21.37;;;6.40;;
5125;SDS011;63008;53.112;8.896;2023-07-02T04:08:15;15.60;;;5.80;;
5125;SDS011;63008;53.112;8.896;2023-07-02T04:10:16;17.13;;;5.93;;
5125;SDS011;63008;53.112;8.896;2023-07-02T04:12:19;21.17;;;7.17;;
5125;SDS011;63008;53.112;8.896;2023-07-02T04:14:20;19.90;;;6.60;;
5125;SDS011;63008;53.112;8.896;2023-07-02T04:16:21;14.97;;;6.10;;
5125;SDS011;63008;53.112;8.896;2023-07-02T04:18:22;25.60;;;6.93;;
5125;SDS011;63008;53.112;8.896;2023-07-02T04:20:23;19.00;;;6.30;;
5125;SDS011;63008;53.112;8.896;2023-07-02T04:22:24;20.90;;;6.60;;
5125;SDS011;63008;53.112;8.896;2023-07-02T04:24:25;17.13;;;6.43;;
5125;SDS011;63008;53.112;8.896;2023-07-02T04:26:26;20.30;;;7.00;;
5125;SDS011;63008;53.112;8.896;2023-07-02T04:28:27;16.40;;;7.20;;
5125;SDS011;63008;53.112;8.896;2023-07-02T04:30:28;18.13;;;7.10;;
5125;SDS011;63008;53.112;8.896;2023-07-02T04:32:29;18.00;;;6.07;;
5125;SDS011;63008;53.112;8.896;2023-07-02T04:34:30;25.73;;;6.93;;
5125;SDS011;63008;53.112;8.896;2023-07-02T04:36:31;18.20;;;6.77;;
5125;SDS011;63008;53.112;8.896;2023-07-02T04:38:32;19.80;;;6.73;;
5125;SDS011;63008;53.112;8.896;2023-07-02T04:40:33;15.53;;;6.33;;
5125;SDS011;63008;53.112;8.896;2023-07-02T04:42:34;19.20;;;6.30;;
5125;SDS011;63008;53.112;8.896;2023-07-02T04:44:38;21.57;;;7.20;;
5125;SDS011;63008;53.112;8.896;2023-07-02T04:46:39;18.77;;;7.23;;
5125;SDS011;63008;53.112;8.896;2023-07-02T04:48:40;16.90;;;5.97;;
5125;SDS011;63008;53.112;8.896;2023-07-02T04:50:41;26.07;;;8.23;;
5125;SDS011;63008;53.112;8.896;2023-07-02T04:52:42;17.03;;;7.00;;
5125;SDS011;63008;53.112;8.896;2023-07-02T04:54:43;19.87;;;6.70;;
5125;SDS011;63008;53.112;8.896;2023-07-02T04:56:44;20.03;;;6.73;;
5125;SDS011;63008;53.112;8.896;2023-07-02T04:58:45;19.13;;;6.83;;
5125;SDS011;63008;53.112;8.896;2023-07-02T05:00:46;27.67;;;7.10;;
5125;SDS011;63008;53.112;8.896;2023-07-02T05:02:47;18.83;;;6.23;;
5125;SDS011;63008;53.112;8.896;2023-07-02T05:04:48;26.10;;;8.10;;
5125;SDS011;63008;53.112;8.896;2023-07-02T05:06:49;23.07;;;7.40;;
5125;SDS011;63008;53.112;8.896;2023-07-02T05:08:50;23.53;;;7.30;;
5125;SDS011;63008;53.112;8.896;2023-07-02T05:10:52;23.03;;;8.20;;
5125;SDS011;63008;53.112;8.896;2023-07-02T05:12:53;19.40;;;7.43;;
5125;SDS011;63008;53.112;8.896;2023-07-02T05:14:54;29.30;;;8.10;;
5125;SDS011;63008;53.112;8.896;2023-07-02T05:16:55;34.40;;;8.03;;
5125;SDS011;63008;53.112;8.896;2023-07-02T05:18:56;25.83;;;8.30;;
5125;SDS011;63008;53.112;8.896;2023-07-02T05:20:56;23.30;;;7.70;;
5125;SDS011;63008;53.112;8.896;2023-07-02T05:22:57;20.37;;;8.13;;
5125;SDS011;63008;53.112;8.896;2023-07-02T05:24:58;19.80;;;7.73;;
5125;SDS011;63008;53.112;8.896;2023-07-02T05:26:59;18.43;;;7.87;;
5125;SDS011;63008;53.112;8.896;2023-07-02T05:29:01;18.30;;;7.73;;
5125;SDS011;63008;53.112;8.896;2023-07-02T05:31:02;24.00;;;7.33;;
5125;SDS011;63008;53.112;8.896;2023-07-02T05:33:03;18.40;;;7.83;;
5125;SDS011;63008;53.112;8.896;2023-07-02T05:35:04;16.50;;;7.07;;
5125;SDS011;63008;53.112;8.896;2023-07-02T05:37:05;24.77;;;7.77;;
5125;SDS011;63008;53.112;8.896;2023-07-02T05:39:06;15.50;;;7.50;;
5125;SDS011;63008;53.112;8.896;2023-07-02T05:41:07;28.67;;;9.03;;
5125;SDS011;63008;53.112;8.896;2023-07-02T05:43:08;29.00;;;8.70;;
5125;SDS011;63008;53.112;8.896;2023-07-02T05:45:09;26.40;;;8.60;;
5125;SDS011;63008;53.112;8.896;2023-07-02T05:47:11;22.23;;;7.67;;
5125;SDS011;63008;53.112;8.896;2023-07-02T05:49:14;21.13;;;8.83;;
5125;SDS011;63008;53.112;8.896;2023-07-02T05:51:22;23.30;;;7.57;;
5125;SDS011;63008;53.112;8.896;2023-07-02T05:53:25;25.23;;;8.27;;
5125;SDS011;63008;53.112;8.896;2023-07-02T05:55:26;23.13;;;8.50;;
5125;SDS011;63008;53.112;8.896;2023-07-02T05:57:27;27.50;;;7.77;;
5125;SDS011;63008;53.112;8.896;2023-07-02T05:59:28;26.03;;;8.77;;
5125;SDS011;63008;53.112;8.896;2023-07-02T06:01:29;22.07;;;8.27;;
5125;SDS011;63008;53.112;8.896;2023-07-02T06:03:30;24.27;;;7.53;;
5125;SDS011;63008;53.112;8.896;2023-07-02T06:05:31;24.93;;;8.77;;
5125;SDS011;63008;53.112;8.896;2023-07-02T06:07:32;21.83;;;7.80;;
5125;SDS011;63008;53.112;8.896;2023-07-02T06:09:33;20.83;;;8.53;;
5125;SDS011;63008;53.112;8.896;2023-07-02T06:11:34;31.97;;;8.40;;
5125;SDS011;63008;53.112;8.896;2023-07-02T06:13:35;25.70;;;8.00;;
5125;SDS011;63008;53.112;8.896;2023-07-02T06:15:36;19.83;;;7.90;;
5125;SDS011;63008;53.112;8.896;2023-07-02T06:17:37;22.57;;;7.33;;
5125;SDS011;63008;53.112;8.896;2023-07-02T06:19:38;22.63;;;7.17;;
5125;SDS011;63008;53.112;8.896;2023-07-02T06:21:39;23.90;;;9.00;;
5125;SDS011;63008;53.112;8.896;2023-07-02T06:23:41;19.03;;;8.20;;
5125;SDS011;63008;53.112;8.896;2023-07-02T06:25:42;27.40;;;8.67;;
5125;SDS011;63008;53.112;8.896;2023-07-02T06:27:43;25.70;;;9.27;;
5125;SDS011;63008;53.112;8.896;2023-07-02T06:29:44;24.10;;;8.70;;
5125;SDS011;63008;53.112;8.896;2023-07-02T06:31:45;24.70;;;7.83;;
5125;SDS011;63008;53.112;8.896;2023-07-02T06:33:46;24.23;;;8.80;;
5125;SDS011;63008;53.112;8.896;2023-07-02T06:35:47;18.70;;;7.27;;
5125;SDS011;63008;53.112;8.896;2023-07-02T06:37:49;25.60;;;7.17;;
5125;SDS011;63008;53.112;8.896;2023-07-02T06:39:50;20.67;;;7.07;;
5125;SDS011;63008;53.112;8.896;2023-07-02T06:41:51;21.83;;;8.07;;
5125;SDS011;63008;53.112;8.896;2023-07-02T06:43:52;24.10;;;8.00;;
5125;SDS011;63008;53.112;8.896;2023-07-02T06:45:53;17.33;;;7.00;;
5125;SDS011;63008;53.112;8.896;2023-07-02T06:47:54;25.60;;;9.17;;
5125;SDS011;63008;53.112;8.896;2023-07-02T06:49:55;16.17;;;7.90;;
5125;SDS011;63008;53.112;8.896;2023-07-02T06:51:56;22.70;;;8.13;;
5125;SDS011;63008;53.112;8.896;2023-07-02T06:53:57;18.87;;;6.87;;
5125;SDS011;63008;53.112;8.896;2023-07-02T06:55:58;22.53;;;8.40;;
5125;SDS011;63008;53.112;8.896;2023-07-02T06:57:59;25.33;;;8.87;;
5125;SDS011;63008;53.112;8.896;2023-07-02T07:00:00;21.20;;;8.13;;
5125;SDS011;63008;53.112;8.896;2023-07-02T07:02:01;23.57;;;7.90;;
5125;SDS011;63008;53.112;8.896;2023-07-02T07:04:03;30.73;;;7.90;;
5125;SDS011;63008;53.112;8.896;2023-07-02T07:06:04;22.20;;;8.40;;
5125;SDS011;63008;53.112;8.896;2023-07-02T07:08:05;15.43;;;8.33;;
5125;SDS011;63008;53.112;8.896;2023-07-02T07:10:06;28.67;;;7.60;;
5125;SDS011;63008;53.112;8.896;2023-07-02T07:12:08;19.63;;;8.53;;
5125;SDS011;63008;53.112;8.896;2023-07-02T07:14:09;22.00;;;8.47;;
5125;SDS011;63008;53.112;8.896;2023-07-02T07:16:10;27.47;;;8.77;;
5125;SDS011;63008;53.112;8.896;2023-07-02T07:18:12;18.77;;;8.70;;
5125;SDS011;63008;53.112;8.896;2023-07-02T07:20:13;17.87;;;7.30;;
5125;SDS011;63008;53.112;8.896;2023-07-02T07:22:14;25.40;;;8.23;;
5125;SDS011;63008;53.112;8.896;2023-07-02T07:24:15;22.83;;;7.87;;
5125;SDS011;63008;53.112;8.896;2023-07-02T07:26:16;22.43;;;8.50;;
5125;SDS011;63008;53.112;8.896;2023-07-02T07:28:17;20.47;;;8.13;;
5125;SDS011;63008;53.112;8.896;2023-07-02T07:30:18;20.53;;;7.67;;
5125;SDS011;63008;53.112;8.896;2023-07-02T07:32:23;27.53;;;8.40;;
5125;SDS011;63008;53.112;8.896;2023-07-02T07:34:24;24.30;;;7.63;;
5125;SDS011;63008;53.112;8.896;2023-07-02T07:36:25;17.63;;;6.73;;
5125;SDS011;63008;53.112;8.896;2023-07-02T07:38:26;23.40;;;7.20;;
5125;SDS011;63008;53.112;8.896;2023-07-02T07:40:26;14.37;;;6.93;;
5125;SDS011;63008;53.112;8.896;2023-07-02T07:42:27;15.40;;;7.17;;
5125;SDS011;63008;53.112;8.896;2023-07-02T07:44:28;12.47;;;6.63;;
5125;SDS011;63008;53.112;8.896;2023-07-02T07:46:29;24.23;;;6.40;;
5125;SDS011;63008;53.112;8.896;2023-07-02T07:48:31;20.53;;;6.50;;
5125;SDS011;63008;53.112;8.896;2023-07-02T07:50:32;14.17;;;5.90;;
5125;SDS011;63008;53.112;8.896;2023-07-02T07:52:33;19.10;;;5.93;;
5125;SDS011;63008;53.112;8.896;2023-07-02T07:54:33;16.90;;;6.30;;
5125;SDS011;63008;53.112;8.896;2023-07-02T07:56:37;16.13;;;6.80;;
5125;SDS011;63008;53.112;8.896;2023-07-02T07:58:38;17.27;;;6.20;;
5125;SDS011;63008;53.112;8.896;2023-07-02T08:00:39;16.70;;;6.53;;
5125;SDS011;63008;53.112;8.896;2023-07-02T08:02:40;14.37;;;6.33;;
5125;SDS011;63008;53.112;8.896;2023-07-02T08:04:41;13.33;;;6.17;;
5125;SDS011;63008;53.112;8.896;2023-07-02T08:06:42;19.20;;;6.80;;
5125;SDS011;63008;53.112;8.896;2023-07-02T08:08:43;15.63;;;5.67;;
5125;SDS011;63008;53.112;8.896;2023-07-02T08:10:44;14.47;;;6.70;;
5125;SDS011;63008;53.112;8.896;2023-07-02T08:12:45;17.00;;;6.07;;
5125;SDS011;63008;53.112;8.896;2023-07-02T08:14:48;13.17;;;5.37;;
5125;SDS011;63008;53.112;8.896;2023-07-02T08:16:51;17.40;;;6.27;;
5125;SDS011;63008;53.112;8.896;2023-07-02T08:18:52;10.93;;;5.37;;
5125;SDS011;63008;53.112;8.896;2023-07-02T08:20:53;14.67;;;6.40;;
5125;SDS011;63008;53.112;8.896;2023-07-02T08:22:54;9.07;;;4.40;;
5125;SDS011;63008;53.112;8.896;2023-07-02T08:24:55;16.00;;;5.23;;
5125;SDS011;63008;53.112;8.896;2023-07-02T08:26:56;23.50;;;6.10;;
5125;SDS011;63008;53.112;8.896;2023-07-02T08:28:57;28.23;;;6.23;;
5125;SDS011;63008;53.112;8.896;2023-07-02T08:30:58;12.73;;;5.07;;
5125;SDS011;63008;53.112;8.896;2023-07-02T08:32:59;17.40;;;5.40;;
5125;SDS011;63008;53.112;8.896;2023-07-02T08:35:00;13.47;;;5.60;;
5125;SDS011;63008;53.112;8.896;2023-07-02T08:37:02;13.70;;;5.10;;
5125;SDS011;63008;53.112;8.896;2023-07-02T08:39:03;13.10;;;5.10;;
5125;SDS011;63008;53.112;8.896;2023-07-02T08:41:05;14.30;;;6.40;;
5125;SDS011;63008;53.112;8.896;2023-07-02T08:43:06;14.60;;;5.87;;
5125;SDS011;63008;53.112;8.896;2023-07-02T08:45:07;9.80;;;4.50;;
5125;SDS011;63008;53.112;8.896;2023-07-02T08:47:08;11.60;;;5.33;;
5125;SDS011;63008;53.112;8.896;2023-07-02T08:49:10;5.50;;;4.33;;
5125;SDS011;63008;53.112;8.896;2023-07-02T08:51:11;14.60;;;5.57;;
5125;SDS011;63008;53.112;8.896;2023-07-02T08:53:12;11.10;;;4.70;;
5125;SDS011;63008;53.112;8.896;2023-07-02T08:55:13;10.90;;;5.00;;
5125;SDS011;63008;53.112;8.896;2023-07-02T08:57:14;14.17;;;5.60;;
5125;SDS011;63008;53.112;8.896;2023-07-02T08:59:15;15.73;;;5.17;;
5125;SDS011;63008;53.112;8.896;2023-07-02T09:01:16;11.37;;;4.77;;
5125;SDS011;63008;53.112;8.896;2023-07-02T09:03:17;16.83;;;6.13;;
5125;SDS011;63008;53.112;8.896;2023-07-02T09:05:18;9.97;;;5.30;;
5125;SDS011;63008;53.112;8.896;2023-07-02T09:07:19;7.83;;;4.00;;
5125;SDS011;63008;53.112;8.896;2023-07-02T09:09:20;9.93;;;4.50;;
5125;SDS011;63008;53.112;8.896;2023-07-02T09:11:21;13.17;;;5.57;;
5125;SDS011;63008;53.112;8.896;2023-07-02T09:13:21;14.80;;;5.90;;
5125;SDS011;63008;53.112;8.896;2023-07-02T09:15:23;11.20;;;5.00;;
5125;SDS011;63008;53.112;8.896;2023-07-02T09:17:31;16.40;;;4.83;;
5125;SDS011;63008;53.112;8.896;2023-07-02T09:19:35;14.57;;;6.80;;
5125;SDS011;63008;53.112;8.896;2023-07-02T09:21:47;14.60;;;6.60;;
5125;SDS011;63008;53.112;8.896;2023-07-02T09:23:49;12.47;;;5.90;;
5125;SDS011;63008;53.112;8.896;2023-07-02T09:25:50;22.33;;;6.30;;
5125;SDS011;63008;53.112;8.896;2023-07-02T09:27:51;12.83;;;6.07;;
5125;SDS011;63008;53.112;8.896;2023-07-02T09:29:52;14.43;;;6.07;;
5125;SDS011;63008;53.112;8.896;2023-07-02T09:31:53;17.00;;;6.53;;
5125;SDS011;63008;53.112;8.896;2023-07-02T09:34:00;14.70;;;6.20;;
5125;SDS011;63008;53.112;8.896;2023-07-02T09:36:02;16.70;;;5.77;;
5125;SDS011;63008;53.112;8.896;2023-07-02T09:38:03;11.80;;;6.27;;
5125;SDS011;63008;53.112;8.896;2023-07-02T09:40:05;13.73;;;5.53;;
5125;SDS011;63008;53.112;8.896;2023-07-02T09:42:09;19.07;;;6.10;;
5125;SDS011;63008;53.112;8.896;2023-07-02T09:44:11;11.73;;;5.57;;
5125;SDS011;63008;53.112;8.896;2023-07-02T09:46:13;13.10;;;5.20;;
5125;SDS011;63008;53.112;8.896;2023-07-02T09:48:14;21.03;;;6.00;;
5125;SDS011;63008;53.112;8.896;2023-07-02T09:50:16;11.20;;;5.23;;
5125;SDS011;63008;53.112;8.896;2023-07-02T09:52:18;11.57;;;5.73;;
5125;SDS011;63008;53.112;8.896;2023-07-02T09:54:20;13.63;;;6.20;;
5125;SDS011;63008;53.112;8.896;2023-07-02T09:56:21;17.17;;;5.80;;
5125;SDS011;63008;53.112;8.896;2023-07-02T09:58:22;19.20;;;5.73;;
5125;SDS011;63008;53.112;8.896;2023-07-02T10:00:23;11.87;;;5.00;;
5125;SDS011;63008;53.112;8.896;2023-07-02T10:02:24;14.00;;;5.77;;
5125;SDS011;63008;53.112;8.896;2023-07-02T10:04:25;10.60;;;5.30;;
5125;SDS011;63008;53.112;8.896;2023-07-02T10:06:26;9.10;;;4.80;;
5125;SDS011;63008;53.112;8.896;2023-07-02T10:08:27;12.77;;;5.50;;
5125;SDS011;63008;53.112;8.896;2023-07-02T10:10:31;10.33;;;5.33;;
5125;SDS011;63008;53.112;8.896;2023-07-02T10:12:32;13.40;;;5.07;;
5125;SDS011;63008;53.112;8.896;2023-07-02T10:14:42;13.43;;;5.00;;
5125;SDS011;63008;53.112;8.896;2023-07-02T10:16:50;11.20;;;4.93;;
5125;SDS011;63008;53.112;8.896;2023-07-02T10:18:53;8.07;;;4.70;;
5125;SDS011;63008;53.112;8.896;2023-07-02T10:20:54;9.30;;;4.27;;
5125;SDS011;63008;53.112;8.896;2023-07-02T10:22:55;10.60;;;4.97;;
5125;SDS011;63008;53.112;8.896;2023-07-02T10:24:57;14.60;;;4.70;;
5125;SDS011;63008;53.112;8.896;2023-07-02T10:27:01;8.20;;;4.20;;
5125;SDS011;63008;53.112;8.896;2023-07-02T10:29:03;8.70;;;4.13;;
5125;SDS011;63008;53.112;8.896;2023-07-02T10:31:04;13.80;;;4.80;;
5125;SDS011;63008;53.112;8.896;2023-07-02T10:33:12;8.13;;;3.87;;
5125;SDS011;63008;53.112;8.896;2023-07-02T10:35:15;8.10;;;4.40;;
5125;SDS011;63008;53.112;8.896;2023-07-02T10:37:17;10.00;;;3.57;;
5125;SDS011;63008;53.112;8.896;2023-07-02T10:39:17;9.37;;;3.50;;
5125;SDS011;63008;53.112;8.896;2023-07-02T10:41:26;8.70;;;4.03;;
5125;SDS011;63008;53.112;8.896;2023-07-02T10:43:28;12.33;;;4.30;;
5125;SDS011;63008;53.112;8.896;2023-07-02T10:45:31;9.83;;;3.67;;
5125;SDS011;63008;53.112;8.896;2023-07-02T10:47:33;11.27;;;3.90;;
5125;SDS011;63008;53.112;8.896;2023-07-02T10:49:39;8.13;;;3.33;;
5125;SDS011;63008;53.112;8.896;2023-07-02T10:51:40;7.17;;;3.23;;
5125;SDS011;63008;53.112;8.896;2023-07-02T10:53:41;5.80;;;2.60;;
5125;SDS011;63008;53.112;8.896;2023-07-02T10:55:42;10.33;;;3.37;;
5125;SDS011;63008;53.112;8.896;2023-07-02T10:57:43;4.80;;;3.07;;
5125;SDS011;63008;53.112;8.896;2023-07-02T10:59:44;5.17;;;3.33;;
5125;SDS011;63008;53.112;8.896;2023-07-02T11:01:50;11.47;;;3.37;;
5125;SDS011;63008;53.112;8.896;2023-07-02T11:06:02;13.20;;;3.70;;
5125;SDS011;63008;53.112;8.896;2023-07-02T11:08:07;7.77;;;2.87;;
5125;SDS011;63008;53.112;8.896;2023-07-02T11:10:09;8.80;;;3.07;;
5125;SDS011;63008;53.112;8.896;2023-07-02T11:12:17;10.17;;;4.03;;
5125;SDS011;63008;53.112;8.896;2023-07-02T11:14:31;14.10;;;3.33;;
5125;SDS011;63008;53.112;8.896;2023-07-02T11:16:33;9.83;;;3.40;;
5125;SDS011;63008;53.112;8.896;2023-07-02T11:18:36;5.20;;;2.70;;
5125;SDS011;63008;53.112;8.896;2023-07-02T11:20:37;7.40;;;3.77;;
5125;SDS011;63008;53.112;8.896;2023-07-02T11:22:39;6.03;;;3.07;;
5125;SDS011;63008;53.112;8.896;2023-07-02T11:24:41;5.60;;;3.57;;
5125;SDS011;63008;53.112;8.896;2023-07-02T11:26:42;9.60;;;3.97;;
5125;SDS011;63008;53.112;8.896;2023-07-02T11:28:50;10.40;;;3.33;;
5125;SDS011;63008;53.112;8.896;2023-07-02T11:30:52;7.70;;;3.10;;
5125;SDS011;63008;53.112;8.896;2023-07-02T11:32:54;11.37;;;3.30;;
5125;SDS011;63008;53.112;8.896;2023-07-02T11:34:55;4.00;;;2.80;;
5125;SDS011;63008;53.112;8.896;2023-07-02T11:36:57;10.10;;;3.57;;
5125;SDS011;63008;53.112;8.896;2023-07-02T11:38:58;7.07;;;3.00;;
5125;SDS011;63008;53.112;8.896;2023-07-02T11:40:59;8.60;;;2.87;;
5125;SDS011;63008;53.112;8.896;2023-07-02T11:43:00;5.30;;;2.43;;
5125;SDS011;63008;53.112;8.896;2023-07-02T11:45:01;8.30;;;3.30;;
5125;SDS011;63008;53.112;8.896;2023-07-02T11:47:02;9.10;;;3.10;;
5125;SDS011;63008;53.112;8.896;2023-07-02T11:49:04;7.50;;;3.73;;
5125;SDS011;63008;53.112;8.896;2023-07-02T11:51:05;13.63;;;3.67;;
5125;SDS011;63008;53.112;8.896;2023-07-02T11:53:06;10.50;;;3.40;;
5125;SDS011;63008;53.112;8.896;2023-07-02T11:55:07;5.13;;;2.77;;
5125;SDS011;63008;53.112;8.896;2023-07-02T11:57:08;3.60;;;2.77;;
5125;SDS011;63008;53.112;8.896;2023-07-02T11:59:09;7.97;;;2.97;;
5125;SDS011;63008;53.112;8.896;2023-07-02T12:01:10;6.13;;;2.80;;
5125;SDS011;63008;53.112;8.896;2023-07-02T12:03:11;7.47;;;2.47;;
5125;SDS011;63008;53.112;8.896;2023-07-02T12:05:13;3.77;;;1.90;;
5125;SDS011;63008;53.112;8.896;2023-07-02T12:07:14;8.60;;;3.00;;
5125;SDS011;63008;53.112;8.896;2023-07-02T12:09:15;8.53;;;3.13;;
5125;SDS011;63008;53.112;8.896;2023-07-02T12:11:16;9.43;;;3.03;;
5125;SDS011;63008;53.112;8.896;2023-07-02T12:13:17;4.20;;;2.73;;
5125;SDS011;63008;53.112;8.896;2023-07-02T12:15:18;5.50;;;2.40;;
5125;SDS011;63008;53.112;8.896;2023-07-02T12:17:19;10.33;;;3.27;;
5125;SDS011;63008;53.112;8.896;2023-07-02T12:19:20;4.27;;;2.70;;